LOWS/SZG METAR and TAF weather

Enter ICAO airport designator
Station Type Date Time Source
LOWS METAR 2020/01/21 09:20 UTC NOAA

LOWS 210920Z VRB01KT 4500 BR FEW003 M04/M04 Q1041 R15/19//95 BECMG 6000


Station Type Date Time Source
LOWS Decoded METAR 2020/01/21 09:20 UTC NOAA

Salzburg-Flughafen, Austria (LOWS) 47-48N 013-00E 450M
Jan 21, 2020 - 04:20 AM EST / 2020.01.21 0920 UTC
Wind: Variable at 1 MPH (1 KT):0
Visibility: 2 mile(s):0
Sky conditions: mostly clear
Weather: mist
Temperature: 24 F (-4 C)
Dew Point: 24 F (-4 C)
Relative Humidity: 100%
Pressure (altimeter): 30.74 in. Hg (1041 hPa)
ob: LOWS 210920Z VRB01KT 4500 BR FEW003 M04/M04 Q1041 R15/19//95 BECMG 6000
cycle: 9

Station Type Date Time Source
LOWS TAF 2020/01/21 06:59 UTC NOAA

TAF COR LOWS 210550Z 2106/2206 15003KT 4000 BR SCT002 BKN005 TX01/2114Z TNM07/2206Z
TEMPO 2106/2109 VRB02KT 0400 FZBCFG BKN002
BECMG 2109/2111 33005KT 9999 FEW012
BECMG 2116/2118 VRB02KT 6000 BKN007
TEMPO 2118/2206 2500 BR BKN004 PROB30
TEMPO 2122/2206 0300 FZFG VV002

Example: see airport list